sensor_id;sensor_type;location;lat;lon;timestamp;pressure;altitude;pressure_sealevel;temperature;humidity
3294;BME280;1659;51.470;6.770;2023-04-30T00:00:42;102133.88;;;8.37;82.24
3294;BME280;1659;51.470;6.770;2023-04-30T00:03:08;102150.56;;;8.36;82.32
3294;BME280;1659;51.470;6.770;2023-04-30T00:05:35;102141.78;;;8.34;82.50
3294;BME280;1659;51.470;6.770;2023-04-30T00:08:02;102138.22;;;8.31;82.88
3294;BME280;1659;51.470;6.770;2023-04-30T00:10:29;102147.00;;;8.30;82.52
3294;BME280;1659;51.470;6.770;2023-04-30T00:12:55;102139.03;;;8.27;82.62
3294;BME280;1659;51.470;6.770;2023-04-30T00:15:23;102139.03;;;8.26;82.53
3294;BME280;1659;51.470;6.770;2023-04-30T00:17:50;102138.97;;;8.23;83.00
3294;BME280;1659;51.470;6.770;2023-04-30T00:20:17;102143.34;;;8.21;83.14
3294;BME280;1659;51.470;6.770;2023-04-30T00:22:44;102139.78;;;8.17;83.14
3294;BME280;1659;51.470;6.770;2023-04-30T00:25:10;102138.91;;;8.17;83.10
3294;BME280;1659;51.470;6.770;2023-04-30T00:27:37;102142.38;;;8.14;83.19
3294;BME280;1659;51.470;6.770;2023-04-30T00:30:04;102154.63;;;8.12;83.24
3294;BME280;1659;51.470;6.770;2023-04-30T00:32:32;102155.47;;;8.08;83.50
3294;BME280;1659;51.470;6.770;2023-04-30T00:34:59;102157.19;;;8.06;83.92
3294;BME280;1659;51.470;6.770;2023-04-30T00:37:25;102155.38;;;8.03;83.34
3294;BME280;1659;51.470;6.770;2023-04-30T00:39:52;102154.50;;;8.01;83.72
3294;BME280;1659;51.470;6.770;2023-04-30T00:42:18;102159.72;;;8.00;83.50
3294;BME280;1659;51.470;6.770;2023-04-30T00:44:45;102158.81;;;7.98;84.01
3294;BME280;1659;51.470;6.770;2023-04-30T00:47:11;102158.81;;;7.96;83.67
3294;BME280;1659;51.470;6.770;2023-04-30T00:49:39;102157.03;;;7.93;84.08
3294;BME280;1659;51.470;6.770;2023-04-30T00:52:06;102154.38;;;7.92;83.88
3294;BME280;1659;51.470;6.770;2023-04-30T00:54:33;102151.69;;;7.89;83.71
3294;BME280;1659;51.470;6.770;2023-04-30T00:57:01;102151.66;;;7.87;84.64
3294;BME280;1659;51.470;6.770;2023-04-30T00:59:28;102154.22;;;7.84;83.72
3294;BME280;1659;51.470;6.770;2023-04-30T01:01:55;102156.84;;;7.81;84.60
3294;BME280;1659;51.470;6.770;2023-04-30T01:04:22;102159.44;;;7.80;84.61
3294;BME280;1659;51.470;6.770;2023-04-30T01:06:50;102148.84;;;7.75;84.76
3294;BME280;1659;51.470;6.770;2023-04-30T01:09:17;102154.06;;;7.72;84.64
3294;BME280;1659;51.470;6.770;2023-04-30T01:11:51;102148.75;;;7.70;84.64
3294;BME280;1659;51.470;6.770;2023-04-30T01:14:26;102146.13;;;7.69;84.78
3294;BME280;1659;51.470;6.770;2023-04-30T01:17:01;102150.50;;;7.68;84.58
3294;BME280;1659;51.470;6.770;2023-04-30T01:19:37;102148.69;;;7.64;84.66
3294;BME280;1659;51.470;6.770;2023-04-30T01:22:09;102138.97;;;7.62;85.19
3294;BME280;1659;51.470;6.770;2023-04-30T01:24:48;102143.34;;;7.60;85.20
3294;BME280;1659;51.470;6.770;2023-04-30T01:27:29;102144.19;;;7.57;85.18
3294;BME280;1659;51.470;6.770;2023-04-30T01:30:00;102136.25;;;7.54;85.50
3294;BME280;1659;51.470;6.770;2023-04-30T01:32:27;102131.81;;;7.53;85.20
3294;BME280;1659;51.470;6.770;2023-04-30T01:34:53;102133.59;;;7.52;85.36
3294;BME280;1659;51.470;6.770;2023-04-30T01:37:23;102130.94;;;7.51;85.20
3294;BME280;1659;51.470;6.770;2023-04-30T01:40:04;102139.69;;;7.50;85.90
3294;BME280;1659;51.470;6.770;2023-04-30T01:42:41;102132.66;;;7.49;85.69
3294;BME280;1659;51.470;6.770;2023-04-30T01:45:39;102128.25;;;7.46;85.27
3294;BME280;1659;51.470;6.770;2023-04-30T01:48:18;102142.25;;;7.45;85.74
3294;BME280;1659;51.470;6.770;2023-04-30T01:50:50;102140.47;;;7.43;85.79
3294;BME280;1659;51.470;6.770;2023-04-30T01:53:20;102144.84;;;7.44;85.94
3294;BME280;1659;51.470;6.770;2023-04-30T01:55:50;102144.78;;;7.41;85.54
3294;BME280;1659;51.470;6.770;2023-04-30T01:58:22;102150.94;;;7.40;85.75
3294;BME280;1659;51.470;6.770;2023-04-30T02:00:51;102149.09;;;7.35;85.47
3294;BME280;1659;51.470;6.770;2023-04-30T02:03:17;102149.94;;;7.33;85.58
3294;BME280;1659;51.470;6.770;2023-04-30T02:05:46;102145.50;;;7.29;86.00
3294;BME280;1659;51.470;6.770;2023-04-30T02:08:12;102154.16;;;7.25;85.82
3294;BME280;1659;51.470;6.770;2023-04-30T02:10:39;102151.47;;;7.20;85.98
3294;BME280;1659;51.470;6.770;2023-04-30T02:13:06;102153.16;;;7.18;85.74
3294;BME280;1659;51.470;6.770;2023-04-30T02:15:32;102156.59;;;7.14;86.18
3294;BME280;1659;51.470;6.770;2023-04-30T02:18:00;102156.56;;;7.11;86.72
3294;BME280;1659;51.470;6.770;2023-04-30T02:20:27;102154.72;;;7.07;86.26
3294;BME280;1659;51.470;6.770;2023-04-30T02:22:53;102152.06;;;7.05;86.32
3294;BME280;1659;51.470;6.770;2023-04-30T02:25:20;102156.38;;;7.02;86.71
3294;BME280;1659;51.470;6.770;2023-04-30T02:27:46;102155.47;;;6.99;86.36
3294;BME280;1659;51.470;6.770;2023-04-30T02:30:14;102158.06;;;6.96;86.83
3294;BME280;1659;51.470;6.770;2023-04-30T02:32:41;102147.47;;;6.93;86.35
3294;BME280;1659;51.470;6.770;2023-04-30T02:35:09;102146.53;;;6.90;87.03
3294;BME280;1659;51.470;6.770;2023-04-30T02:37:36;102145.59;;;6.86;86.80
3294;BME280;1659;51.470;6.770;2023-04-30T02:40:03;102151.69;;;6.84;87.41
3294;BME280;1659;51.470;6.770;2023-04-30T02:42:30;102155.13;;;6.81;87.18
3294;BME280;1659;51.470;6.770;2023-04-30T02:44:57;102153.31;;;6.77;86.85
3294;BME280;1659;51.470;6.770;2023-04-30T02:47:23;102158.50;;;6.74;87.15
3294;BME280;1659;51.470;6.770;2023-04-30T02:49:50;102154.97;;;6.72;87.52
3294;BME280;1659;51.470;6.770;2023-04-30T02:52:18;102160.16;;;6.69;87.10
3294;BME280;1659;51.470;6.770;2023-04-30T02:54:44;102159.22;;;6.67;87.12
3294;BME280;1659;51.470;6.770;2023-04-30T02:57:11;102153.06;;;6.65;87.82
3294;BME280;1659;51.470;6.770;2023-04-30T02:59:37;102149.56;;;6.64;87.25
3294;BME280;1659;51.470;6.770;2023-04-30T03:02:04;102150.41;;;6.63;87.97
3294;BME280;1659;51.470;6.770;2023-04-30T03:04:30;102150.41;;;6.63;87.44
3294;BME280;1659;51.470;6.770;2023-04-30T03:06:57;102151.25;;;6.62;87.82
3294;BME280;1659;51.470;6.770;2023-04-30T03:09:26;102148.63;;;6.60;87.56
3294;BME280;1659;51.470;6.770;2023-04-30T03:11:52;102141.59;;;6.59;87.72
3294;BME280;1659;51.470;6.770;2023-04-30T03:14:19;102147.66;;;6.57;87.47
3294;BME280;1659;51.470;6.770;2023-04-30T03:16:45;102145.91;;;6.56;87.51
3294;BME280;1659;51.470;6.770;2023-04-30T03:19:12;102150.28;;;6.57;87.75
3294;BME280;1659;51.470;6.770;2023-04-30T03:21:38;102153.78;;;6.56;88.19
3294;BME280;1659;51.470;6.770;2023-04-30T03:24:05;102139.75;;;6.55;88.26
3294;BME280;1659;51.470;6.770;2023-04-30T03:26:33;102137.09;;;6.54;88.28
3294;BME280;1659;51.470;6.770;2023-04-30T03:29:00;102137.91;;;6.51;87.73
3294;BME280;1659;51.470;6.770;2023-04-30T03:31:26;102139.63;;;6.49;88.19
3294;BME280;1659;51.470;6.770;2023-04-30T03:33:53;102146.59;;;6.47;88.59
3294;BME280;1659;51.470;6.770;2023-04-30T03:36:19;102146.53;;;6.44;88.47
3294;BME280;1659;51.470;6.770;2023-04-30T03:38:46;102148.25;;;6.42;88.11
3294;BME280;1659;51.470;6.770;2023-04-30T03:41:13;102143.78;;;6.38;88.58
3294;BME280;1659;51.470;6.770;2023-04-30T03:43:40;102148.09;;;6.36;88.23
3294;BME280;1659;51.470;6.770;2023-04-30T03:46:07;102147.19;;;6.34;88.12
3294;BME280;1659;51.470;6.770;2023-04-30T03:48:33;102151.53;;;6.32;88.08
3294;BME280;1659;51.470;6.770;2023-04-30T03:51:00;102152.34;;;6.31;88.45
3294;BME280;1659;51.470;6.770;2023-04-30T03:53:27;102154.09;;;6.30;88.73
3294;BME280;1659;51.470;6.770;2023-04-30T03:55:53;102156.72;;;6.30;88.81
3294;BME280;1659;51.470;6.770;2023-04-30T03:58:20;102152.31;;;6.28;88.72
3294;BME280;1659;51.470;6.770;2023-04-30T04:00:48;102151.44;;;6.29;88.67
3294;BME280;1659;51.470;6.770;2023-04-30T04:03:15;102156.69;;;6.29;89.26
3294;BME280;1659;51.470;6.770;2023-04-30T04:05:42;102159.31;;;6.29;88.54
3294;BME280;1659;51.470;6.770;2023-04-30T04:08:09;102157.56;;;6.28;88.52
3294;BME280;1659;51.470;6.770;2023-04-30T04:10:36;102154.94;;;6.28;89.40
3294;BME280;1659;51.470;6.770;2023-04-30T04:13:03;102156.69;;;6.29;88.60
3294;BME280;1659;51.470;6.770;2023-04-30T04:15:30;102161.94;;;6.29;89.33
3294;BME280;1659;51.470;6.770;2023-04-30T04:17:58;102160.22;;;6.29;89.37
3294;BME280;1659;51.470;6.770;2023-04-30T04:20:25;102154.97;;;6.29;89.12
3294;BME280;1659;51.470;6.770;2023-04-30T04:22:51;102154.09;;;6.30;89.30
3294;BME280;1659;51.470;6.770;2023-04-30T04:25:18;102158.53;;;6.31;89.01
3294;BME280;1659;51.470;6.770;2023-04-30T04:27:44;102162.88;;;6.31;89.18
3294;BME280;1659;51.470;6.770;2023-04-30T04:30:11;102167.28;;;6.32;89.32
3294;BME280;1659;51.470;6.770;2023-04-30T04:32:38;102162.91;;;6.32;89.14
3294;BME280;1659;51.470;6.770;2023-04-30T04:35:15;102162.06;;;6.33;89.25
3294;BME280;1659;51.470;6.770;2023-04-30T04:37:42;102170.88;;;6.37;89.20
3294;BME280;1659;51.470;6.770;2023-04-30T04:40:09;102168.28;;;6.38;89.23
3294;BME280;1659;51.470;6.770;2023-04-30T04:42:36;102171.03;;;6.43;89.13
3294;BME280;1659;51.470;6.770;2023-04-30T04:45:04;102178.09;;;6.47;89.11
3294;BME280;1659;51.470;6.770;2023-04-30T04:47:31;102177.28;;;6.50;88.93
3294;BME280;1659;51.470;6.770;2023-04-30T04:49:58;102178.22;;;6.53;89.25
3294;BME280;1659;51.470;6.770;2023-04-30T04:52:26;102165.19;;;6.58;89.24
3294;BME280;1659;51.470;6.770;2023-04-30T04:54:52;102167.91;;;6.63;89.04
3294;BME280;1659;51.470;6.770;2023-04-30T04:57:19;102167.13;;;6.67;89.08
3294;BME280;1659;51.470;6.770;2023-04-30T04:59:45;102167.22;;;6.71;89.42
3294;BME280;1659;51.470;6.770;2023-04-30T05:02:12;102178.75;;;6.78;89.09
3294;BME280;1659;51.470;6.770;2023-04-30T05:04:38;102176.22;;;6.84;89.24
3294;BME280;1659;51.470;6.770;2023-04-30T05:07:06;102171.09;;;6.90;89.15
3294;BME280;1659;51.470;6.770;2023-04-30T05:09:34;102179.13;;;6.99;89.54
3294;BME280;1659;51.470;6.770;2023-04-30T05:12:00;102175.69;;;7.04;89.32
3294;BME280;1659;51.470;6.770;2023-04-30T05:14:27;102173.16;;;7.08;89.28
3294;BME280;1659;51.470;6.770;2023-04-30T05:16:54;102180.28;;;7.14;89.55
3294;BME280;1659;51.470;6.770;2023-04-30T05:19:20;102170.75;;;7.21;89.04
3294;BME280;1659;51.470;6.770;2023-04-30T05:21:47;102170.88;;;7.28;89.25
3294;BME280;1659;51.470;6.770;2023-04-30T05:24:13;102172.75;;;7.35;89.00
3294;BME280;1659;51.470;6.770;2023-04-30T05:26:41;102172.03;;;7.43;89.29
3294;BME280;1659;51.470;6.770;2023-04-30T05:29:08;102162.47;;;7.49;88.65
3294;BME280;1659;51.470;6.770;2023-04-30T05:31:35;102166.13;;;7.57;89.42
3294;BME280;1659;51.470;6.770;2023-04-30T05:34:02;102177.69;;;7.67;89.04
3294;BME280;1659;51.470;6.770;2023-04-30T05:36:28;102180.50;;;7.80;89.65
3294;BME280;1659;51.470;6.770;2023-04-30T05:38:55;102176.31;;;7.92;89.97
3294;BME280;1659;51.470;6.770;2023-04-30T05:41:22;102180.91;;;8.06;89.94
3294;BME280;1659;51.470;6.770;2023-04-30T05:43:50;102189.00;;;8.23;90.76
3294;BME280;1659;51.470;6.770;2023-04-30T05:46:16;102185.81;;;8.44;90.61
3294;BME280;1659;51.470;6.770;2023-04-30T05:48:43;102185.22;;;8.68;90.71
3294;BME280;1659;51.470;6.770;2023-04-30T05:51:09;102188.28;;;9.02;90.79
3294;BME280;1659;51.470;6.770;2023-04-30T05:53:36;102184.59;;;9.89;89.58
3294;BME280;1659;51.470;6.770;2023-04-30T05:56:02;102186.84;;;10.87;85.99
3294;BME280;1659;51.470;6.770;2023-04-30T05:58:29;102179.91;;;11.58;83.68
3294;BME280;1659;51.470;6.770;2023-04-30T06:00:57;102175.44;;;12.17;81.75
3294;BME280;1659;51.470;6.770;2023-04-30T06:03:24;102177.91;;;12.65;80.09
3294;BME280;1659;51.470;6.770;2023-04-30T06:05:51;102178.59;;;13.04;78.62
3294;BME280;1659;51.470;6.770;2023-04-30T06:08:17;102172.16;;;13.40;77.33
3294;BME280;1659;51.470;6.770;2023-04-30T06:10:44;102178.09;;;13.72;76.50
3294;BME280;1659;51.470;6.770;2023-04-30T06:13:10;102178.72;;;13.98;75.98
3294;BME280;1659;51.470;6.770;2023-04-30T06:15:39;102170.38;;;14.31;75.10
3294;BME280;1659;51.470;6.770;2023-04-30T06:18:07;102172.56;;;14.69;74.24
3294;BME280;1659;51.470;6.770;2023-04-30T06:20:33;102170.97;;;15.18;73.49
3294;BME280;1659;51.470;6.770;2023-04-30T06:23:00;102166.75;;;15.62;72.59
3294;BME280;1659;51.470;6.770;2023-04-30T06:25:28;102165.34;;;15.91;71.86
3294;BME280;1659;51.470;6.770;2023-04-30T06:27:54;102174.94;;;16.01;70.66
3294;BME280;1659;51.470;6.770;2023-04-30T06:30:21;102170.44;;;16.03;69.69
3294;BME280;1659;51.470;6.770;2023-04-30T06:32:47;102181.63;;;16.24;69.97
3294;BME280;1659;51.470;6.770;2023-04-30T06:35:15;102167.97;;;16.39;69.05
3294;BME280;1659;51.470;6.770;2023-04-30T06:37:42;102176.75;;;16.45;68.35
3294;BME280;1659;51.470;6.770;2023-04-30T06:40:09;102174.66;;;16.59;68.12
3294;BME280;1659;51.470;6.770;2023-04-30T06:42:35;102178.59;;;16.85;66.52
3294;BME280;1659;51.470;6.770;2023-04-30T06:45:03;102178.31;;;16.97;66.49
3294;BME280;1659;51.470;6.770;2023-04-30T06:47:31;102181.22;;;17.25;66.14
3294;BME280;1659;51.470;6.770;2023-04-30T06:49:58;102178.84;;;17.49;64.98
3294;BME280;1659;51.470;6.770;2023-04-30T06:52:26;102176.72;;;17.63;64.80
3294;BME280;1659;51.470;6.770;2023-04-30T06:54:53;102173.97;;;18.01;64.58
3294;BME280;1659;51.470;6.770;2023-04-30T06:57:19;102169.41;;;18.36;64.00
3294;BME280;1659;51.470;6.770;2023-04-30T06:59:46;102169.66;;;18.58;63.77
3294;BME280;1659;51.470;6.770;2023-04-30T07:02:13;102175.09;;;18.86;62.63
3294;BME280;1659;51.470;6.770;2023-04-30T07:04:39;102167.25;;;19.08;62.43
3294;BME280;1659;51.470;6.770;2023-04-30T07:07:06;102165.81;;;19.24;61.75
3294;BME280;1659;51.470;6.770;2023-04-30T07:09:34;102159.78;;;19.18;60.77
3294;BME280;1659;51.470;6.770;2023-04-30T07:12:02;102156.47;;;19.38;61.17
3294;BME280;1659;51.470;6.770;2023-04-30T07:14:29;102167.63;;;19.51;60.19
3294;BME280;1659;51.470;6.770;2023-04-30T07:16:55;102159.13;;;19.65;60.56
3294;BME280;1659;51.470;6.770;2023-04-30T07:19:22;102158.75;;;20.00;59.86
3294;BME280;1659;51.470;6.770;2023-04-30T07:21:51;102156.84;;;20.29;59.20
3294;BME280;1659;51.470;6.770;2023-04-30T07:24:17;102160.50;;;20.50;58.57
3294;BME280;1659;51.470;6.770;2023-04-30T07:26:45;102154.69;;;20.63;58.49
3294;BME280;1659;51.470;6.770;2023-04-30T07:29:12;102153.72;;;20.87;57.80
3294;BME280;1659;51.470;6.770;2023-04-30T07:31:38;102153.78;;;20.64;57.01
3294;BME280;1659;51.470;6.770;2023-04-30T07:34:05;102158.59;;;20.54;56.91
3294;BME280;1659;51.470;6.770;2023-04-30T07:36:31;102161.78;;;20.87;56.96
3294;BME280;1659;51.470;6.770;2023-04-30T07:38:58;102159.97;;;21.10;56.08
3294;BME280;1659;51.470;6.770;2023-04-30T07:41:25;102157.75;;;21.42;55.73
3294;BME280;1659;51.470;6.770;2023-04-30T07:43:53;102158.91;;;21.58;55.46
3294;BME280;1659;51.470;6.770;2023-04-30T07:46:19;102173.84;;;21.86;55.30
3294;BME280;1659;51.470;6.770;2023-04-30T07:48:46;102164.53;;;22.14;54.22
3294;BME280;1659;51.470;6.770;2023-04-30T07:51:12;102167.22;;;22.14;53.79
3294;BME280;1659;51.470;6.770;2023-04-30T07:53:39;102161.97;;;22.31;54.64
3294;BME280;1659;51.470;6.770;2023-04-30T07:56:05;102159.31;;;22.69;53.14
3294;BME280;1659;51.470;6.770;2023-04-30T07:58:32;102161.53;;;22.78;53.35
3294;BME280;1659;51.470;6.770;2023-04-30T08:01:00;102161.25;;;23.04;53.02
3294;BME280;1659;51.470;6.770;2023-04-30T08:03:26;102161.47;;;23.18;53.33
3294;BME280;1659;51.470;6.770;2023-04-30T08:05:53;102158.00;;;23.51;53.18
3294;BME280;1659;51.470;6.770;2023-04-30T08:08:20;102162.44;;;23.69;52.40
3294;BME280;1659;51.470;6.770;2023-04-30T08:10:46;102155.25;;;23.70;51.88
3294;BME280;1659;51.470;6.770;2023-04-30T08:13:13;102160.94;;;23.64;51.95
3294;BME280;1659;51.470;6.770;2023-04-30T08:15:39;102155.69;;;23.78;52.07
3294;BME280;1659;51.470;6.770;2023-04-30T08:18:08;102158.72;;;24.07;51.56
3294;BME280;1659;51.470;6.770;2023-04-30T08:20:35;102163.13;;;24.25;51.26
3294;BME280;1659;51.470;6.770;2023-04-30T08:23:01;102161.50;;;24.39;51.17
3294;BME280;1659;51.470;6.770;2023-04-30T08:25:28;102157.22;;;24.68;50.86
3294;BME280;1659;51.470;6.770;2023-04-30T08:27:55;102152.31;;;24.91;50.24
3294;BME280;1659;51.470;6.770;2023-04-30T08:30:22;102156.50;;;24.96;49.34
3294;BME280;1659;51.470;6.770;2023-04-30T08:32:49;102154.16;;;24.90;49.73
3294;BME280;1659;51.470;6.770;2023-04-30T08:35:17;102147.34;;;24.83;49.38
3294;BME280;1659;51.470;6.770;2023-04-30T08:37:44;102153.09;;;25.09;49.11
3294;BME280;1659;51.470;6.770;2023-04-30T08:40:11;102153.50;;;25.33;49.24
3294;BME280;1659;51.470;6.770;2023-04-30T08:42:44;102154.88;;;25.40;48.81
3294;BME280;1659;51.470;6.770;2023-04-30T08:45:11;102156.78;;;25.54;48.97
3294;BME280;1659;51.470;6.770;2023-04-30T08:47:39;102150.59;;;25.52;47.96
3294;BME280;1659;51.470;6.770;2023-04-30T08:50:06;102162.16;;;25.39;48.00
3294;BME280;1659;51.470;6.770;2023-04-30T08:52:36;102159.34;;;25.41;47.86
3294;BME280;1659;51.470;6.770;2023-04-30T08:55:06;102157.59;;;25.40;47.50
3294;BME280;1659;51.470;6.770;2023-04-30T08:57:33;102155.44;;;25.31;47.82
3294;BME280;1659;51.470;6.770;2023-04-30T08:59:59;102146.78;;;25.24;47.94
3294;BME280;1659;51.470;6.770;2023-04-30T09:02:26;102150.41;;;25.55;47.60
3294;BME280;1659;51.470;6.770;2023-04-30T09:04:53;102150.78;;;25.63;47.52
3294;BME280;1659;51.470;6.770;2023-04-30T09:07:19;102140.31;;;25.87;47.50
3294;BME280;1659;51.470;6.770;2023-04-30T09:09:52;102140.72;;;25.65;45.07
3294;BME280;1659;51.470;6.770;2023-04-30T09:12:18;102139.91;;;25.18;46.77
3294;BME280;1659;51.470;6.770;2023-04-30T09:15:00;102140.06;;;25.15;46.83
3294;BME280;1659;51.470;6.770;2023-04-30T09:17:27;102140.34;;;25.27;46.35
3294;BME280;1659;51.470;6.770;2023-04-30T09:20:05;102143.03;;;25.27;46.46
3294;BME280;1659;51.470;6.770;2023-04-30T09:22:32;102135.53;;;25.16;46.43
3294;BME280;1659;51.470;6.770;2023-04-30T09:25:00;102143.19;;;25.39;45.77
3294;BME280;1659;51.470;6.770;2023-04-30T09:27:26;102134.94;;;25.57;45.87
3294;BME280;1659;51.470;6.770;2023-04-30T09:29:53;102136.81;;;25.71;46.10
3294;BME280;1659;51.470;6.770;2023-04-30T09:32:20;102124.41;;;25.97;46.04
3294;BME280;1659;51.470;6.770;2023-04-30T09:34:47;102133.28;;;26.13;45.36
3294;BME280;1659;51.470;6.770;2023-04-30T09:37:14;102123.03;;;26.18;45.74
3294;BME280;1659;51.470;6.770;2023-04-30T09:39:48;102119.16;;;26.23;45.11
3294;BME280;1659;51.470;6.770;2023-04-30T09:42:17;102126.25;;;26.11;45.29
3294;BME280;1659;51.470;6.770;2023-04-30T09:44:45;102115.41;;;26.11;45.46
3294;BME280;1659;51.470;6.770;2023-04-30T09:47:13;102111.44;;;26.16;45.33
3294;BME280;1659;51.470;6.770;2023-04-30T09:49:41;102107.97;;;25.70;42.47
3294;BME280;1659;51.470;6.770;2023-04-30T09:52:08;102109.66;;;24.96;44.52
3294;BME280;1659;51.470;6.770;2023-04-30T09:54:36;102106.78;;;24.83;44.10
3294;BME280;1659;51.470;6.770;2023-04-30T09:57:03;102094.94;;;24.85;44.90
3294;BME280;1659;51.470;6.770;2023-04-30T09:59:32;102104.38;;;25.09;44.71
3294;BME280;1659;51.470;6.770;2023-04-30T10:02:02;102100.09;;;25.20;44.84
3294;BME280;1659;51.470;6.770;2023-04-30T10:04:32;102098.47;;;25.48;44.60
3294;BME280;1659;51.470;6.770;2023-04-30T10:07:01;102103.88;;;25.48;44.11
3294;BME280;1659;51.470;6.770;2023-04-30T10:09:38;102101.50;;;25.72;44.49
3294;BME280;1659;51.470;6.770;2023-04-30T10:12:09;102097.00;;;26.02;44.28
3294;BME280;1659;51.470;6.770;2023-04-30T10:14:44;102091.84;;;26.26;43.99
3294;BME280;1659;51.470;6.770;2023-04-30T10:17:15;102092.56;;;26.00;42.60
3294;BME280;1659;51.470;6.770;2023-04-30T10:19:45;102092.81;;;25.81;43.82
3294;BME280;1659;51.470;6.770;2023-04-30T10:22:13;102089.94;;;26.13;43.66
3294;BME280;1659;51.470;6.770;2023-04-30T10:24:41;102089.25;;;26.24;43.53
3294;BME280;1659;51.470;6.770;2023-04-30T10:27:07;102080.44;;;26.21;42.41
3294;BME280;1659;51.470;6.770;2023-04-30T10:29:34;102095.28;;;26.00;42.83
3294;BME280;1659;51.470;6.770;2023-04-30T10:32:02;102087.06;;;26.02;42.95
3294;BME280;1659;51.470;6.770;2023-04-30T10:34:37;102083.16;;;26.21;42.65
3294;BME280;1659;51.470;6.770;2023-04-30T10:37:14;102083.94;;;26.37;42.38
3294;BME280;1659;51.470;6.770;2023-04-30T10:39:43;102070.63;;;26.47;41.95
3294;BME280;1659;51.470;6.770;2023-04-30T10:42:10;102071.66;;;26.73;41.84
3294;BME280;1659;51.470;6.770;2023-04-30T10:44:37;102064.44;;;26.86;41.03
3294;BME280;1659;51.470;6.770;2023-04-30T10:47:06;102069.41;;;26.80;41.31
3294;BME280;1659;51.470;6.770;2023-04-30T10:49:33;102060.50;;;26.78;41.06
3294;BME280;1659;51.470;6.770;2023-04-30T10:52:01;102051.88;;;26.98;41.04
3294;BME280;1659;51.470;6.770;2023-04-30T10:54:30;102066.34;;;26.57;41.25
3294;BME280;1659;51.470;6.770;2023-04-30T10:57:08;102054.25;;;26.63;41.12
3294;BME280;1659;51.470;6.770;2023-04-30T10:59:35;102054.09;;;26.79;40.95
3294;BME280;1659;51.470;6.770;2023-04-30T11:02:02;102052.53;;;26.62;40.87
3294;BME280;1659;51.470;6.770;2023-04-30T11:04:30;102052.97;;;26.27;40.77
3294;BME280;1659;51.470;6.770;2023-04-30T11:07:01;102038.84;;;26.22;40.51
3294;BME280;1659;51.470;6.770;2023-04-30T11:09:39;102041.31;;;26.39;40.29
3294;BME280;1659;51.470;6.770;2023-04-30T11:12:13;102030.63;;;26.50;39.63
3294;BME280;1659;51.470;6.770;2023-04-30T11:14:41;102028.69;;;26.67;40.07
3294;BME280;1659;51.470;6.770;2023-04-30T11:17:10;102029.00;;;26.75;39.02
3294;BME280;1659;51.470;6.770;2023-04-30T11:19:45;102029.00;;;26.48;39.21
3294;BME280;1659;51.470;6.770;2023-04-30T11:22:17;102034.56;;;26.32;39.36
3294;BME280;1659;51.470;6.770;2023-04-30T11:25:01;102025.19;;;26.09;39.45
3294;BME280;1659;51.470;6.770;2023-04-30T11:27:30;102027.84;;;25.96;39.19
3294;BME280;1659;51.470;6.770;2023-04-30T11:29:57;102014.78;;;25.88;39.65
3294;BME280;1659;51.470;6.770;2023-04-30T11:32:26;102023.75;;;26.03;39.48
3294;BME280;1659;51.470;6.770;2023-04-30T11:34:54;102018.56;;;26.42;39.41
3294;BME280;1659;51.470;6.770;2023-04-30T11:37:29;102022.84;;;26.31;38.68
3294;BME280;1659;51.470;6.770;2023-04-30T11:39:59;102013.69;;;26.05;38.06
3294;BME280;1659;51.470;6.770;2023-04-30T11:42:26;102024.91;;;25.11;38.72
3294;BME280;1659;51.470;6.770;2023-04-30T11:44:54;102013.34;;;24.31;39.75
3294;BME280;1659;51.470;6.770;2023-04-30T11:47:37;102014.88;;;24.51;39.66
3294;BME280;1659;51.470;6.770;2023-04-30T11:50:06;102023.63;;;24.56;39.69
3294;BME280;1659;51.470;6.770;2023-04-30T11:52:33;102015.81;;;25.12;39.18
3294;BME280;1659;51.470;6.770;2023-04-30T11:54:59;102006.81;;;25.56;38.61
3294;BME280;1659;51.470;6.770;2023-04-30T11:57:33;102012.94;;;25.60;38.11
3294;BME280;1659;51.470;6.770;2023-04-30T12:00:08;102008.28;;;25.76;37.70
3294;BME280;1659;51.470;6.770;2023-04-30T12:02:35;102005.56;;;25.76;37.80
3294;BME280;1659;51.470;6.770;2023-04-30T12:05:02;102000.16;;;25.91;37.56
3294;BME280;1659;51.470;6.770;2023-04-30T12:07:30;101998.25;;;26.07;37.08
3294;BME280;1659;51.470;6.770;2023-04-30T12:09:58;101989.72;;;25.99;36.68
3294;BME280;1659;51.470;6.770;2023-04-30T12:12:27;101984.31;;;25.99;36.77
3294;BME280;1659;51.470;6.770;2023-04-30T12:14:54;101987.88;;;25.99;36.58
3294;BME280;1659;51.470;6.770;2023-04-30T12:17:31;101977.94;;;26.27;36.22
3294;BME280;1659;51.470;6.770;2023-04-30T12:19:58;101977.44;;;26.08;36.25
3294;BME280;1659;51.470;6.770;2023-04-30T12:22:25;101977.72;;;25.89;36.75
3294;BME280;1659;51.470;6.770;2023-04-30T12:24:53;101985.75;;;25.33;37.28
3294;BME280;1659;51.470;6.770;2023-04-30T12:27:20;101981.84;;;24.62;37.75
3294;BME280;1659;51.470;6.770;2023-04-30T12:29:47;101981.94;;;24.28;37.89
3294;BME280;1659;51.470;6.770;2023-04-30T12:32:16;101974.44;;;24.65;37.48
3294;BME280;1659;51.470;6.770;2023-04-30T12:34:43;101979.56;;;25.00;37.09
3294;BME280;1659;51.470;6.770;2023-04-30T12:37:14;101979.22;;;24.76;37.32
3294;BME280;1659;51.470;6.770;2023-04-30T12:39:40;101975.41;;;24.64;37.65
3294;BME280;1659;51.470;6.770;2023-04-30T12:42:08;101976.03;;;24.84;37.23
3294;BME280;1659;51.470;6.770;2023-04-30T12:44:42;101978.25;;;25.22;36.85
3294;BME280;1659;51.470;6.770;2023-04-30T12:47:09;101980.00;;;25.23;36.51
3294;BME280;1659;51.470;6.770;2023-04-30T12:49:35;101978.94;;;24.81;37.09
3294;BME280;1659;51.470;6.770;2023-04-30T12:52:04;101968.81;;;24.54;37.13
3294;BME280;1659;51.470;6.770;2023-04-30T12:54:32;101967.94;;;24.06;36.89
3294;BME280;1659;51.470;6.770;2023-04-30T12:57:01;101973.31;;;23.56;36.97
3294;BME280;1659;51.470;6.770;2023-04-30T12:59:30;101970.31;;;23.63;36.90
3294;BME280;1659;51.470;6.770;2023-04-30T13:02:07;101964.88;;;24.28;36.72
3294;BME280;1659;51.470;6.770;2023-04-30T13:04:35;101959.94;;;24.97;35.69
3294;BME280;1659;51.470;6.770;2023-04-30T13:07:01;101958.41;;;25.52;35.31
3294;BME280;1659;51.470;6.770;2023-04-30T13:09:29;101946.38;;;25.99;34.97
3294;BME280;1659;51.470;6.770;2023-04-30T13:11:56;101943.69;;;26.53;34.49
3294;BME280;1659;51.470;6.770;2023-04-30T13:14:22;101939.41;;;26.77;34.36
3294;BME280;1659;51.470;6.770;2023-04-30T13:16:50;101948.47;;;26.90;34.26
3294;BME280;1659;51.470;6.770;2023-04-30T13:19:17;101932.28;;;27.01;34.03